createdAt,value
2019-04-07T00:01:52.683Z,99175.69
2019-04-07T00:04:25.522Z,99170.55
2019-04-07T00:06:56.620Z,99172.09
2019-04-07T00:09:27.732Z,99173.02
2019-04-07T00:11:59.178Z,99178.02
2019-04-07T00:14:28.189Z,99180.69
2019-04-07T00:16:57.233Z,99175.03
2019-04-07T00:19:25.935Z,99178.95
2019-04-07T00:21:54.562Z,99174.73
2019-04-07T00:24:23.187Z,99180.15
2019-04-07T00:26:52.453Z,99170.81
2019-04-07T00:29:21.536Z,99175.36
2019-04-07T00:31:50.169Z,99167.95
2019-04-07T00:34:19.194Z,99171.71
2019-04-07T00:36:48.058Z,99176.75
2019-04-07T00:39:16.937Z,99178.11
2019-04-07T00:41:45.665Z,99177.51
2019-04-07T00:44:14.676Z,99183.66
2019-04-07T00:46:43.516Z,99179.37
2019-04-07T00:49:13.120Z,99182.44
2019-04-07T00:51:42.147Z,99187.33
2019-04-07T00:54:11.467Z,99183.94
2019-04-07T00:56:40.181Z,99184.58
2019-04-07T00:59:08.864Z,99181.32
2019-04-07T01:01:37.474Z,99184.80
2019-04-07T01:04:06.186Z,99186.81
2019-04-07T01:06:36.189Z,99188.11
2019-04-07T01:09:06.961Z,99191.48
2019-04-07T01:11:36.301Z,99188.56
2019-04-07T01:14:06.006Z,99187.41
2019-04-07T01:16:35.263Z,99191.46
2019-04-07T01:19:04.583Z,99200.31
2019-04-07T01:21:33.453Z,99197.53
2019-04-07T01:24:02.336Z,99201.30
2019-04-07T01:26:31.822Z,99196.41
2019-04-07T01:29:00.517Z,99192.05
2019-04-07T01:31:29.810Z,99188.96
2019-04-07T01:33:58.741Z,99196.91
2019-04-07T01:36:27.983Z,99201.41
2019-04-07T01:38:56.686Z,99200.63
2019-04-07T01:41:34.072Z,99200.73
2019-04-07T01:44:08.020Z,99195.27
2019-04-07T01:46:46.071Z,99198.45
2019-04-07T01:49:21.154Z,99194.88
2019-04-07T01:52:07.223Z,99203.89
2019-04-07T01:54:53.849Z,99195.70
2019-04-07T01:57:53.532Z,99196.95
2019-04-07T02:00:33.803Z,99197.60
2019-04-07T02:03:12.421Z,99194.78
2019-04-07T02:06:02.002Z,99196.55
2019-04-07T02:08:54.069Z,99201.20
2019-04-07T02:11:29.391Z,99205.15
2019-04-07T02:14:07.027Z,99197.98
2019-04-07T02:16:43.461Z,99197.18
2019-04-07T02:19:28.267Z,99198.70
2019-04-07T02:22:15.928Z,99193.92
2019-04-07T02:24:49.873Z,99193.17
2019-04-07T02:27:33.426Z,99191.17
2019-04-07T02:30:23.856Z,99188.94
2019-04-07T02:33:12.487Z,99195.09
2019-04-07T02:36:25.524Z,99196.28
2019-04-07T02:39:04.516Z,99190.42
2019-04-07T02:41:40.295Z,99199.13
2019-04-07T02:44:22.856Z,99193.94
2019-04-07T02:47:08.587Z,99197.34
2019-04-07T02:49:56.571Z,99198.39
2019-04-07T02:52:43.186Z,99204.44
2019-04-07T02:55:30.886Z,99199.69
2019-04-07T02:58:21.636Z,99197.83
2019-04-07T03:01:12.149Z,99205.46
2019-04-07T03:04:05.994Z,99210.89
2019-04-07T03:06:53.654Z,99208.27
2019-04-07T03:09:54.662Z,99214.86
2019-04-07T03:12:51.390Z,99218.41
2019-04-07T03:15:46.191Z,99209.63
2019-04-07T03:18:34.420Z,99207.39
2019-04-07T03:21:10.523Z,99209.03
2019-04-07T03:24:06.560Z,99216.99
2019-04-07T03:26:55.592Z,99213.33
2019-04-07T03:29:43.041Z,99218.85
2019-04-07T03:32:30.460Z,99220.34
2019-04-07T03:35:26.575Z,99222.23
2019-04-07T03:38:17.056Z,99223.28
2019-04-07T03:41:05.368Z,99216.67
2019-04-07T03:43:56.991Z,99219.21
2019-04-07T03:46:34.767Z,99215.59
2019-04-07T03:49:14.900Z,99216.68
2019-04-07T03:51:49.865Z,99220.77
2019-04-07T03:54:48.309Z,99222.12
2019-04-07T03:57:36.489Z,99219.95
2019-04-07T04:00:18.702Z,99223.74
2019-04-07T04:03:09.479Z,99226.34
2019-04-07T04:05:57.366Z,99226.85
2019-04-07T04:08:35.309Z,99226.34
2019-04-07T04:11:10.151Z,99229.09
2019-04-07T04:13:46.172Z,99229.88
2019-04-07T04:16:18.393Z,99230.13
2019-04-07T04:18:47.086Z,99229.09
2019-04-07T04:21:16.411Z,99221.94
2019-04-07T04:23:45.749Z,99222.45
2019-04-07T04:26:15.135Z,99226.56
2019-04-07T04:28:44.259Z,99224.92
2019-04-07T04:31:13.124Z,99225.30
2019-04-07T04:33:42.725Z,99233.02
2019-04-07T04:36:11.376Z,99227.67
2019-04-07T04:38:40.489Z,99228.34
2019-04-07T04:41:09.999Z,99230.58
2019-04-07T04:43:39.306Z,99233.09
2019-04-07T04:46:10.896Z,99231.63
2019-04-07T04:48:38.860Z,99232.56
2019-04-07T04:51:08.506Z,99231.63
2019-04-07T04:53:38.160Z,99232.20
2019-04-07T04:56:07.621Z,99229.97
2019-04-07T04:58:36.294Z,99238.73
2019-04-07T05:01:05.013Z,99235.77
2019-04-07T05:03:33.869Z,99242.53
2019-04-07T05:06:02.568Z,99259.50
2019-04-07T05:08:31.290Z,99250.99
2019-04-07T05:11:00.038Z,99259.73
2019-04-07T05:13:28.878Z,99255.94
2019-04-07T05:15:57.723Z,99265.83
2019-04-07T05:18:26.864Z,99263.98
2019-04-07T05:20:56.318Z,99271.92
2019-04-07T05:23:25.184Z,99270.64
2019-04-07T05:25:54.381Z,99273.12
2019-04-07T05:28:23.125Z,99270.37
2019-04-07T05:30:51.882Z,99268.50
2019-04-07T05:33:21.110Z,99274.59
2019-04-07T05:35:50.437Z,99280.16
2019-04-07T05:38:19.236Z,99277.80
2019-04-07T05:40:47.853Z,99279.73
2019-04-07T05:43:16.488Z,99281.95
2019-04-07T05:45:46.391Z,99280.63
2019-04-07T05:48:19.302Z,99285.37
2019-04-07T05:50:46.094Z,99283.52
2019-04-07T05:53:15.063Z,99289.46
2019-04-07T05:55:43.763Z,99299.03
2019-04-07T05:58:15.447Z,99297.55
2019-04-07T06:00:48.704Z,99303.93
2019-04-07T06:03:20.522Z,99307.95
2019-04-07T06:05:51.071Z,99309.26
2019-04-07T06:08:30.281Z,99307.33
2019-04-07T06:11:00.178Z,99314.02
2019-04-07T06:13:32.934Z,99316.11
2019-04-07T06:16:05.640Z,99315.72
2019-04-07T06:18:34.764Z,99312.13
2019-04-07T06:21:17.332Z,99315.56
2019-04-07T06:23:50.727Z,99311.58
2019-04-07T06:26:22.208Z,99314.52
2019-04-07T06:28:54.633Z,99316.30
2019-04-07T06:31:27.103Z,99314.56
2019-04-07T06:34:04.178Z,99321.52
2019-04-07T06:36:51.632Z,99320.33
2019-04-07T06:39:19.933Z,99325.08
2019-04-07T06:41:53.443Z,99331.72
2019-04-07T06:44:30.120Z,99324.00
2019-04-07T06:47:30.752Z,99330.19
2019-04-07T06:50:17.894Z,99331.48
2019-04-07T06:53:10.621Z,99328.44
2019-04-07T06:56:06.050Z,99335.05
2019-04-07T06:59:05.948Z,99334.95
2019-04-07T07:02:14.465Z,99335.98
2019-04-07T07:05:08.421Z,99340.24
2019-04-07T07:08:10.037Z,99337.63
2019-04-07T07:10:56.290Z,99340.66
2019-04-07T07:13:41.419Z,99343.09
2019-04-07T07:16:35.013Z,99345.50
2019-04-07T07:19:40.146Z,99340.33
2019-04-07T07:22:28.448Z,99344.11
2019-04-07T07:25:01.311Z,99351.64
2019-04-07T07:27:40.378Z,99345.39
2019-04-07T07:30:12.174Z,99344.63
2019-04-07T07:32:44.111Z,99338.27
2019-04-07T07:35:15.292Z,99346.80
2019-04-07T07:37:58.136Z,99346.90
2019-04-07T07:40:31.311Z,99349.58
2019-04-07T07:43:14.572Z,99345.06
2019-04-07T07:45:48.316Z,99348.41
2019-04-07T07:48:20.808Z,99351.01
2019-04-07T07:51:12.569Z,99342.22
2019-04-07T07:53:39.493Z,99350.20
2019-04-07T07:56:12.391Z,99346.37
2019-04-07T07:58:50.448Z,99352.70
2019-04-07T08:01:23.513Z,99349.11
2019-04-07T08:03:55.872Z,99351.49
2019-04-07T08:06:25.041Z,99354.86
2019-04-07T08:09:01.154Z,99357.16
2019-04-07T08:11:24.249Z,99355.43
2019-04-07T08:13:53.610Z,99357.30
2019-04-07T08:16:22.271Z,99362.97
2019-04-07T08:18:51.074Z,99366.55
2019-04-07T08:21:20.860Z,99360.16
2019-04-07T08:23:49.572Z,99360.27
2019-04-07T08:26:25.193Z,99362.84
2019-04-07T08:28:54.825Z,99358.87
2019-04-07T08:31:25.668Z,99356.61
2019-04-07T08:33:59.681Z,99363.42
2019-04-07T08:36:27.829Z,99367.47
2019-04-07T08:38:57.143Z,99362.50
2019-04-07T08:41:26.738Z,99366.84
2019-04-07T08:44:17.210Z,99365.30
2019-04-07T08:47:10.809Z,99373.81
2019-04-07T08:49:38.103Z,99376.30
2019-04-07T08:52:12.051Z,99367.94
2019-04-07T08:54:44.193Z,99368.20
2019-04-07T08:57:21.379Z,99368.45
2019-04-07T08:59:53.885Z,99370.75
2019-04-07T09:02:26.886Z,99369.66
2019-04-07T09:04:53.081Z,99368.58
2019-04-07T09:07:24.302Z,99379.48
2019-04-07T09:10:20.698Z,99380.77
2019-04-07T09:12:50.998Z,99375.92
2019-04-07T09:15:29.757Z,99369.44
2019-04-07T09:18:05.483Z,99377.20
2019-04-07T09:20:48.471Z,99367.00
2019-04-07T09:23:34.417Z,99372.53
2019-04-07T09:26:20.719Z,99368.22
2019-04-07T09:28:59.220Z,99367.52
2019-04-07T09:32:02.794Z,99372.52
2019-04-07T09:35:16.607Z,99365.88
2019-04-07T09:38:21.638Z,99368.62
2019-04-07T09:45:12.793Z,99365.14
2019-04-07T09:48:02.130Z,99368.36
2019-04-07T09:50:37.597Z,99372.03
2019-04-07T09:53:21.491Z,99367.55
2019-04-07T09:56:42.887Z,99371.38
2019-04-07T09:59:37.542Z,99368.30
2019-04-07T10:02:37.241Z,99367.52
2019-04-07T10:08:55.636Z,99364.18
2019-04-07T10:11:39.128Z,99365.23
2019-04-07T10:14:37.632Z,99359.28
2019-04-07T10:17:27.724Z,99359.28
2019-04-07T10:23:48.734Z,99358.73
2019-04-07T10:30:15.699Z,99357.38
2019-04-07T11:15:45.140Z,99348.95
2019-04-07T11:44:48.896Z,99344.49
2019-04-07T11:51:19.527Z,99338.54
2019-04-07T11:58:15.092Z,99335.32
2019-04-07T12:01:22.920Z,99333.44
2019-04-07T12:04:30.663Z,99339.67
2019-04-07T12:08:31.144Z,99334.50
2019-04-07T13:35:28.081Z,99302.41
2019-04-07T13:38:22.014Z,99301.00
2019-04-07T13:41:21.777Z,99284.73
2019-04-07T13:44:08.844Z,99284.73
2019-04-07T13:46:49.415Z,99299.06
2019-04-07T13:49:27.838Z,99297.98
2019-04-07T13:52:18.402Z,99303.88
2019-04-07T13:54:52.591Z,99300.70
2019-04-07T13:57:42.935Z,99293.63
2019-04-07T14:00:37.121Z,99293.63
2019-04-07T14:03:43.719Z,99298.75
2019-04-07T14:06:17.509Z,99301.66
2019-04-07T14:09:04.401Z,99302.12
2019-04-07T14:12:08.278Z,99302.12
2019-04-07T14:14:54.987Z,99291.84
2019-04-07T14:18:05.794Z,99286.63
2019-04-07T14:21:18.133Z,99291.36
2019-04-07T14:24:23.795Z,99292.92
2019-04-07T14:27:22.077Z,99288.96
2019-04-07T14:30:04.661Z,99288.96
2019-04-07T14:33:00.140Z,99296.18
2019-04-07T14:36:08.917Z,99296.18
2019-04-07T14:39:00.314Z,99285.65
2019-04-07T14:42:01.026Z,99294.05
2019-04-07T14:45:07.805Z,99289.48
2019-04-07T14:47:54.607Z,99273.50
2019-04-07T14:50:57.150Z,99291.68
2019-04-07T14:54:15.301Z,99293.04
2019-04-07T14:57:09.362Z,99293.04
2019-04-07T15:00:02.129Z,99289.30
2019-04-07T15:17:26.398Z,99283.75
2019-04-07T15:47:00.502Z,99300.20
2019-04-07T15:49:29.521Z,99299.02
2019-04-07T15:51:59.334Z,99299.72
2019-04-07T15:54:28.603Z,99310.28
2019-04-07T15:56:58.780Z,99305.75
2019-04-07T15:59:29.788Z,99312.48
2019-04-07T16:01:58.510Z,99306.84
2019-04-07T16:04:29.315Z,99314.98
2019-04-07T16:06:57.883Z,99320.44
2019-04-07T16:09:34.630Z,99320.44
2019-04-07T16:11:59.077Z,99322.26
2019-04-07T16:14:27.617Z,99322.26
2019-04-07T16:16:59.539Z,99318.62
2019-04-07T16:19:37.406Z,99321.85
2019-04-07T16:21:57.356Z,99327.18
2019-04-07T16:24:26.899Z,99323.02
2019-04-07T16:26:56.186Z,99320.81
2019-04-07T16:29:24.879Z,99325.94
2019-04-07T16:31:55.772Z,99325.94
2019-04-07T16:34:23.920Z,99336.55
2019-04-07T16:36:55.136Z,99335.61
2019-04-07T16:39:23.120Z,99344.61
2019-04-07T16:41:51.674Z,99344.61
2019-04-07T16:44:20.416Z,99337.25
2019-04-07T16:46:49.039Z,99343.51
2019-04-07T16:49:19.002Z,99332.95
2019-04-07T16:51:49.522Z,99343.34
2019-04-07T16:54:24.492Z,99337.97
2019-04-07T16:56:56.952Z,99346.12
2019-04-07T17:03:17.304Z,99351.30
2019-04-07T17:05:48.028Z,99354.95
2019-04-07T17:08:24.957Z,99357.20
2019-04-07T17:11:21.366Z,99357.20
2019-04-07T17:13:53.642Z,99351.49
2019-04-07T17:16:52.177Z,99354.23
2019-04-07T17:19:29.211Z,99354.23
2019-04-07T17:22:01.823Z,99367.28
2019-04-07T17:24:44.177Z,99373.25
2019-04-07T17:27:27.001Z,99365.94
2019-04-07T17:29:58.449Z,99370.02
2019-04-07T17:32:40.371Z,99371.38
2019-04-07T17:35:15.254Z,99375.45
2019-04-07T17:40:58.010Z,99370.84
2019-04-07T17:44:00.853Z,99390.34
2019-04-07T17:47:05.826Z,99390.34
2019-04-07T17:49:56.667Z,99396.55
2019-04-07T17:52:41.247Z,99385.19
2019-04-07T17:55:29.956Z,99394.67
2019-04-07T17:58:12.639Z,99394.67
2019-04-07T18:00:56.802Z,99400.88
2019-04-07T18:03:57.073Z,99400.88
2019-04-07T18:06:42.896Z,99399.76
2019-04-07T18:09:51.353Z,99399.76
2019-04-07T18:12:47.917Z,99398.36
2019-04-07T18:15:38.310Z,99398.36
2019-04-07T18:22:22.026Z,99409.16
2019-04-07T18:25:10.548Z,99420.20
2019-04-07T18:28:03.004Z,99420.20
2019-04-07T18:30:54.283Z,99421.81
2019-04-07T18:33:41.388Z,99423.05
2019-04-07T18:36:36.009Z,99433.30
2019-04-07T18:39:36.375Z,99433.30
2019-04-07T18:42:27.273Z,99434.65
2019-04-07T18:45:23.152Z,99439.63
2019-04-07T18:48:08.034Z,99439.63
2019-04-07T18:51:13.211Z,99442.62
2019-04-07T18:54:34.174Z,99444.15
2019-04-07T18:57:24.982Z,99458.99
2019-04-07T19:00:24.521Z,99463.28
2019-04-07T19:03:04.514Z,99458.92
2019-04-07T19:06:12.764Z,99458.92
2019-04-07T19:09:04.917Z,99465.88
2019-04-07T19:12:18.899Z,99468.23
2019-04-07T19:15:09.196Z,99473.91
2019-04-07T19:18:00.574Z,99471.12
2019-04-07T19:20:56.280Z,99474.58
2019-04-07T19:23:47.744Z,99472.41
2019-04-07T19:26:44.299Z,99481.70
2019-04-07T19:29:28.263Z,99481.70
2019-04-07T19:32:19.916Z,99481.17
2019-04-07T19:35:05.735Z,99481.17
2019-04-07T19:38:17.114Z,99484.41
2019-04-07T19:41:02.924Z,99482.20
2019-04-07T19:44:06.015Z,99484.69
2019-04-07T19:46:59.683Z,99480.77
2019-04-07T19:49:55.443Z,99486.16
2019-04-07T19:52:44.242Z,99482.60
2019-04-07T19:55:32.578Z,99481.33
2019-04-07T19:58:37.300Z,99480.77
2019-04-07T20:01:29.193Z,99484.17
2019-04-07T20:04:24.903Z,99483.16
2019-04-07T20:07:11.537Z,99489.94
2019-04-07T20:09:59.783Z,99486.53
2019-04-07T20:12:42.501Z,99495.89
2019-04-07T20:15:30.610Z,99495.89
2019-04-07T20:18:25.552Z,99490.27
2019-04-07T20:21:18.484Z,99492.11
2019-04-07T20:24:09.216Z,99488.45
2019-04-07T20:26:58.845Z,99491.03
2019-04-07T20:29:43.373Z,99492.90
2019-04-07T20:32:44.876Z,99499.73
2019-04-07T20:35:20.986Z,99494.11
2019-04-07T20:38:51.176Z,99501.94
2019-04-07T20:41:21.710Z,99497.02
2019-04-07T20:44:01.180Z,99493.55
2019-04-07T20:46:53.664Z,99489.28
2019-04-07T20:50:18.272Z,99494.98
2019-04-07T20:53:22.850Z,99494.20
2019-04-07T20:56:14.661Z,99487.02
2019-04-07T20:59:29.453Z,99489.50
2019-04-07T21:02:33.737Z,99489.59
2019-04-07T21:05:24.715Z,99490.06
2019-04-07T21:08:22.975Z,99495.90
2019-04-07T21:11:08.079Z,99495.67
2019-04-07T21:13:54.921Z,99499.42
2019-04-07T21:17:03.813Z,99500.51
2019-04-07T21:19:47.336Z,99504.75
2019-04-07T21:22:31.434Z,99509.02
2019-04-07T21:25:24.848Z,99506.05
2019-04-07T21:28:05.145Z,99507.15
2019-04-07T21:30:46.237Z,99506.84
2019-04-07T21:33:45.404Z,99513.78
2019-04-07T21:36:28.047Z,99518.30
2019-04-07T21:39:30.563Z,99523.23
2019-04-07T21:42:20.973Z,99523.92
2019-04-07T21:45:28.507Z,99524.49
2019-04-07T21:48:28.593Z,99514.38
2019-04-07T21:51:19.488Z,99516.51
2019-04-07T21:54:14.001Z,99514.44
2019-04-07T21:57:05.744Z,99522.83
2019-04-07T21:59:59.517Z,99525.36
2019-04-07T22:02:45.617Z,99525.11
2019-04-07T22:05:33.352Z,99529.16
2019-04-07T22:08:16.965Z,99523.08
2019-04-07T22:10:43.248Z,99527.33
2019-04-07T22:13:14.225Z,99526.66
2019-04-07T22:15:55.577Z,99531.02
2019-04-07T22:18:39.475Z,99533.92
2019-04-07T22:21:17.056Z,99539.23
2019-04-07T22:23:54.132Z,99529.66
2019-04-07T22:26:28.246Z,99532.88
2019-04-07T22:29:04.021Z,99533.92
2019-04-07T22:31:45.612Z,99538.56
2019-04-07T22:34:15.066Z,99535.63
2019-04-07T22:36:47.029Z,99530.62
2019-04-07T22:39:14.239Z,99528.25
2019-04-07T22:41:44.247Z,99536.90
2019-04-07T22:44:13.360Z,99532.94
2019-04-07T22:46:42.204Z,99540.52
2019-04-07T22:49:11.416Z,99535.45
2019-04-07T22:51:43.096Z,99526.23
2019-04-07T22:54:10.571Z,99529.17
2019-04-07T22:56:39.926Z,99534.23
2019-04-07T22:59:10.507Z,99535.62
2019-04-07T23:01:40.787Z,99545.92
2019-04-07T23:04:09.719Z,99545.02
2019-04-07T23:06:38.418Z,99556.24
2019-04-07T23:09:08.140Z,99563.84
2019-04-07T23:11:37.615Z,99567.89
2019-04-07T23:14:07.291Z,99559.07
2019-04-07T23:16:36.037Z,99561.88
2019-04-07T23:19:04.743Z,99558.16
2019-04-07T23:21:34.083Z,99556.63
2019-04-07T23:24:03.443Z,99561.82
2019-04-07T23:26:32.221Z,99558.44
2019-04-07T23:29:00.854Z,99552.42
2019-04-07T23:31:32.026Z,99552.73
2019-04-07T23:34:00.750Z,99552.69
2019-04-07T23:36:29.348Z,99559.89
2019-04-07T23:38:58.148Z,99567.47
2019-04-07T23:41:27.738Z,99570.12
2019-04-07T23:43:56.798Z,99569.58
2019-04-07T23:46:27.220Z,99569.45
2019-04-07T23:48:56.040Z,99569.56
2019-04-07T23:51:24.672Z,99577.33
2019-04-07T23:54:10.891Z,99588.40
2019-04-07T23:56:41.975Z,99582.83
2019-04-07T23:59:10.885Z,99578.72
